.
WxDataArchive / Data Records for 2014-04-21
2014-04-20 April 2014 2014-04-22

Data Records for Monday, 21 April 2014

Time	Temp	Chill	HIndex	Humid	Dewpt	 Wind 	HiWind	WindDir	Rain 	Barom
-----	----	-----	------	-----	-----	------	------	-------	-----	-----
00:00	50.8	50.8	50.8	58	36.6	0	0	---	0.00	30.073 
00:05	50.5	50.5	50.5	58	36.3	0	0	---	0.00	30.073 
00:10	50.4	50.4	50.4	60	37.0	0	0	---	0.00	30.073 
00:15	50.2	50.2	50.2	60	36.9	0	0	---	0.00	30.063 
00:20	50.1	50.1	50.1	60	36.8	0	0	---	0.00	30.063 
00:25	49.9	49.9	49.9	59	36.1	0	0	---	0.00	30.063 
00:30	49.8	49.8	49.8	60	36.5	0	0	---	0.00	30.058 
00:35	49.8	49.8	49.8	61	36.9	0	0	---	0.00	30.058 
00:40	49.8	49.8	49.8	62	37.3	0	0	---	0.00	30.058 
00:45	49.8	49.8	49.8	63	37.7	0	0	---	0.00	30.066 
00:50	49.8	49.8	49.8	64	38.1	0	0	---	0.00	30.066 
00:55	49.5	49.5	49.5	65	38.2	0	0	---	0.00	30.066 
01:00	49.2	49.2	49.2	65	37.9	0	0	---	0.00	30.060 
01:05	49.1	49.1	49.1	66	38.2	0	0	---	0.00	30.060 
01:10	48.8	48.8	48.8	66	38.0	0	0	---	0.00	30.060 
01:15	48.6	48.6	48.6	66	37.8	0	0	---	0.00	30.055 
01:20	48.3	48.3	48.3	67	37.9	0	0	---	0.00	30.055 
01:25	48.2	48.2	48.2	68	38.1	0	0	---	0.00	30.055 
01:30	48.2	48.2	48.2	68	38.1	0	1	90	0.00	30.054 
01:35	48.0	48.0	48.0	68	37.9	0	0	---	0.00	30.054 
01:40	47.9	47.9	47.9	68	37.9	0	0	---	0.00	30.054 
01:45	47.7	47.7	47.7	69	38.0	0	0	---	0.00	30.051 
01:50	47.6	47.6	47.6	69	37.9	0	0	---	0.00	30.051 
01:55	47.4	47.4	47.4	70	38.1	0	0	---	0.00	30.051 
02:00	47.1	47.1	47.1	71	38.2	0	0	---	0.00	30.045 
02:05	47.0	47.0	47.0	70	37.7	0	0	---	0.00	30.045 
02:10	47.0	47.0	47.0	71	38.1	0	0	---	0.00	30.045 
02:15	46.8	46.8	46.8	72	38.3	0	0	---	0.00	30.037 
02:20	46.7	46.7	46.7	72	38.2	0	0	---	0.00	30.037 
02:25	46.5	46.5	46.5	73	38.3	0	0	---	0.00	30.037 
02:30	46.4	46.4	46.4	73	38.2	0	0	---	0.00	30.035 
02:35	46.2	46.2	46.2	73	38.0	0	0	---	0.00	30.035 
02:40	46.2	46.2	46.2	73	38.0	0	0	---	0.00	30.035 
02:45	46.2	46.2	46.2	73	38.0	0	0	---	0.00	30.035 
02:50	46.1	46.1	46.1	73	37.9	0	0	---	0.00	30.035 
02:55	46.1	46.1	46.1	73	37.9	0	0	---	0.00	30.035 
03:00	46.1	46.1	46.1	73	37.9	0	0	---	0.00	30.028 
03:05	46.1	46.1	46.1	74	38.3	0	0	---	0.00	30.028 
03:10	46.1	46.1	46.1	74	38.3	0	0	---	0.00	30.028 
03:15	46.1	46.1	46.1	73	37.9	0	0	---	0.00	30.022 
03:20	46.0	46.0	46.0	73	37.8	0	0	---	0.00	30.022 
03:25	45.8	45.8	45.8	73	37.6	0	0	---	0.00	30.022 
03:30	45.7	45.7	45.7	74	37.9	0	0	---	0.00	30.021 
03:35	45.4	45.4	45.4	73	37.3	0	0	---	0.00	30.021 
03:40	45.2	45.2	45.2	73	37.1	0	0	---	0.00	30.021 
03:45	45.1	45.1	45.1	74	37.3	0	0	---	0.00	30.021 
03:50	45.1	45.1	45.1	75	37.7	0	0	---	0.00	30.021 
03:55	44.9	44.9	44.9	74	37.1	0	0	---	0.00	30.021 
04:00	44.9	44.9	44.9	74	37.1	0	0	---	0.00	30.021 
04:05	44.8	44.8	44.8	75	37.4	0	0	---	0.00	30.021 
04:10	44.8	44.8	44.8	75	37.4	0	0	---	0.00	30.021 
04:15	44.8	44.8	44.8	75	37.4	0	0	---	0.00	30.021 
04:20	44.6	44.6	44.6	76	37.5	0	0	---	0.00	30.021 
04:25	44.6	44.6	44.6	77	37.8	0	0	---	0.00	30.021 
04:30	44.6	44.6	44.6	77	37.8	0	0	---	0.00	30.023 
04:35	44.5	44.5	44.5	78	38.1	0	0	---	0.00	30.023 
04:40	44.3	44.3	44.3	77	37.6	0	0	---	0.00	30.023 
04:45	44.3	44.3	44.3	77	37.6	0	0	---	0.00	30.022 
04:50	44.2	44.2	44.2	77	37.5	0	0	---	0.00	30.022 
04:55	44.1	44.1	44.1	78	37.7	0	0	---	0.00	30.022 
05:00	44.1	44.1	44.1	78	37.7	0	0	---	0.00	30.022 
05:05	44.1	44.1	44.1	78	37.7	0	0	---	0.00	30.022 
05:10	43.9	43.9	43.9	78	37.5	0	0	---	0.00	30.022 
05:15	43.9	43.9	43.9	78	37.5	0	0	---	0.00	30.018 
05:20	43.9	43.9	43.9	78	37.5	0	0	---	0.00	30.018 
05:25	43.9	43.9	43.9	78	37.5	0	0	---	0.00	30.018 
05:30	43.8	43.8	43.8	78	37.4	0	0	---	0.00	30.015 
05:35	43.6	43.6	43.6	78	37.2	0	0	---	0.00	30.015 
05:40	43.5	43.5	43.5	78	37.1	0	0	---	0.00	30.015 
05:45	43.3	43.3	43.3	78	36.9	0	0	---	0.00	30.015 
05:50	43.1	43.1	43.1	78	36.7	0	0	---	0.00	30.015 
05:55	42.9	42.9	42.9	78	36.5	0	0	---	0.00	30.015 
06:00	42.8	42.8	42.8	78	36.4	0	0	---	0.00	30.012 
06:05	42.8	42.8	42.8	79	36.7	0	0	---	0.00	30.012 
06:10	42.6	42.6	42.6	79	36.6	0	0	---	0.00	30.012 
06:15	42.5	42.5	42.5	79	36.5	0	0	---	0.00	30.012 
06:20	42.5	42.5	42.5	79	36.5	0	0	---	0.00	30.012 
06:25	42.5	42.5	42.5	80	36.8	0	0	---	0.00	30.012 
06:30	42.5	42.5	42.5	80	36.8	0	0	---	0.00	30.012 
06:35	42.5	42.5	42.5	79	36.5	0	0	---	0.00	30.012 
06:40	42.3	42.3	42.3	79	36.3	0	0	---	0.00	30.012 
06:45	42.2	42.2	42.2	79	36.2	0	0	---	0.00	30.010 
06:50	42.1	42.1	42.1	80	36.4	0	0	---	0.00	30.010 
06:55	42.1	42.1	42.1	80	36.4	0	0	---	0.00	30.010 
07:00	41.9	41.9	41.9	80	36.2	0	0	---	0.00	30.011 
07:05	41.9	41.9	41.9	81	36.5	0	0	---	0.00	30.011 
07:10	41.9	41.9	41.9	81	36.5	0	0	---	0.00	30.011 
07:15	42.1	42.1	42.1	81	36.7	0	0	---	0.00	30.013 
07:20	42.1	42.1	42.1	81	36.7	0	0	---	0.00	30.013 
07:25	42.2	42.2	42.2	81	36.8	0	0	---	0.00	30.013 
07:30	42.3	42.3	42.3	81	36.9	0	0	---	0.00	30.014 
07:35	42.8	42.8	42.8	82	37.7	0	0	---	0.00	30.014 
07:40	43.1	43.1	43.1	82	38.0	0	0	---	0.00	30.014 
07:45	43.5	43.5	43.5	81	38.1	0	0	---	0.00	30.012 
07:50	43.9	43.9	43.9	81	38.5	0	0	---	0.00	30.012 
07:55	44.9	44.9	44.9	81	39.4	0	0	---	0.00	30.012 
08:00	46.1	46.1	46.1	80	40.3	0	0	---	0.00	30.010 
08:05	47.6	47.6	47.6	76	40.4	0	0	---	0.00	30.010 
08:10	49.8	49.8	49.8	71	40.8	0	0	---	0.00	30.010 
08:15	51.4	51.4	51.4	67	40.8	0	0	---	0.00	30.010 
08:20	52.8	52.8	52.8	64	41.0	0	0	---	0.00	30.010 
08:25	53.9	53.9	53.9	60	40.3	0	0	---	0.00	30.010 
08:30	55.3	55.3	55.3	58	40.8	0	1	90	0.00	30.002 
08:35	56.2	56.2	56.2	55	40.2	0	1	90	0.00	30.002 
08:40	56.7	56.7	56.7	52	39.3	0	1	90	0.00	30.002 
08:45	57.3	57.3	57.3	51	39.3	0	1	90	0.00	29.995 
08:50	58.0	58.0	58.0	50	39.5	0	0	---	0.00	29.995 
08:55	58.4	58.4	58.4	51	40.3	0	1	90	0.00	29.995 
09:00	59.0	59.0	59.0	50	40.4	0	0	---	0.00	29.990 
09:05	59.6	59.6	59.6	50	40.9	0	0	---	0.00	29.990 
09:10	60.2	60.2	60.2	50	41.5	0	0	---	0.00	29.990 
09:15	60.9	60.9	60.9	48	41.1	0	1	90	0.00	29.990 
09:20	61.5	61.5	61.5	48	41.6	0	1	90	0.00	29.990 
09:25	62.1	62.1	62.1	46	41.1	0	1	90	0.00	29.990 
09:30	62.7	62.7	62.7	44	40.5	0	0	---	0.00	29.988 
09:35	63.2	63.2	63.2	45	41.5	0	1	90	0.00	29.988 
09:40	63.9	63.9	63.9	44	41.6	0	1	90	0.00	29.988 
09:45	64.5	64.5	64.5	42	40.9	0	1	90	0.00	29.983 
09:50	65.3	65.3	65.3	39	39.7	1	4	270	0.00	29.983 
09:55	65.6	65.6	65.6	39	40.0	1	3	270	0.00	29.983 
10:00	66.0	66.0	66.0	42	42.2	0	1	270	0.00	29.976 
10:05	66.4	66.4	66.4	40	41.3	0	1	270	0.00	29.976 
10:10	66.6	66.6	66.6	38	40.2	0	2	270	0.00	29.976 
10:15	66.9	66.9	66.9	40	41.8	0	2	270	0.00	29.972 
10:20	67.6	67.6	67.6	38	41.1	0	1	270	0.00	29.972 
10:25	68.4	68.4	68.4	38	41.8	0	1	270	0.00	29.972 
10:30	68.9	68.9	68.9	36	40.8	0	2	270	0.00	29.959 
10:35	69.4	69.4	69.4	37	42.0	1	3	270	0.00	29.959 
10:40	69.8	69.8	69.8	35	40.9	0	2	270	0.00	29.959 
10:45	69.9	69.9	69.9	36	41.7	0	1	270	0.00	29.954 
10:50	69.9	69.9	69.9	36	41.7	0	2	270	0.00	29.954 
10:55	69.8	69.8	69.8	34	40.2	1	3	270	0.00	29.954 
11:00	69.4	69.4	69.4	34	39.8	1	2	270	0.00	29.957 
11:05	69.3	69.3	69.3	35	40.5	0	2	270	0.00	29.957 
11:10	69.3	69.3	69.3	34	39.7	1	2	270	0.00	29.957 
11:15	69.4	69.4	69.4	36	41.3	0	2	270	0.00	29.958 
11:20	69.8	69.8	69.8	36	41.6	0	1	270	0.00	29.958 
11:25	70.1	70.1	70.1	35	41.2	0	1	270	0.00	29.958 
11:30	70.8	70.8	70.8	36	42.5	0	2	270	0.00	29.955 
11:35	71.3	71.3	71.3	31	39.1	1	5	270	0.00	29.955 
11:40	71.6	71.6	71.6	32	40.2	1	4	248	0.00	29.955 
11:45	72.0	72.0	72.0	31	39.7	1	3	270	0.00	29.948 
11:50	72.1	72.1	72.1	31	39.8	1	4	248	0.00	29.948 
11:55	72.3	72.3	72.3	32	40.8	1	4	248	0.00	29.948 
12:00	72.8	72.8	72.8	32	41.2	1	4	248	0.00	29.940 
12:05	73.0	73.0	73.0	31	40.6	1	4	248	0.00	29.940 
12:10	73.2	73.2	73.2	32	41.6	1	4	315	0.00	29.940 
12:15	73.2	73.2	73.2	33	42.4	1	4	270	0.00	29.938 
12:20	73.3	73.3	73.3	33	42.4	1	3	270	0.00	29.938 
12:25	73.5	73.5	73.5	32	41.8	1	2	270	0.00	29.938 
12:30	73.9	73.9	73.9	35	44.5	0	2	270	0.00	29.933 
12:35	74.0	74.0	74.0	31	41.4	0	2	270	0.00	29.933 
12:40	74.0	74.0	74.0	31	41.4	0	3	270	0.00	29.933 
12:45	74.0	74.0	74.0	31	41.4	1	5	270	0.00	29.926 
12:50	73.9	73.9	73.9	31	41.3	1	3	270	0.00	29.926 
12:55	73.7	73.7	73.7	31	41.2	1	3	270	0.00	29.926 
13:00	73.9	73.9	73.9	32	42.2	1	4	270	0.00	29.918 
13:05	73.9	73.9	73.9	31	41.3	2	4	248	0.00	29.918 
13:10	74.0	74.0	74.0	33	43.1	1	5	248	0.00	29.918 
13:15	74.4	74.4	74.4	33	43.4	1	3	248	0.00	29.912 
13:20	74.6	74.6	74.6	32	42.8	1	3	0	0.00	29.912 
13:25	74.7	74.7	74.7	33	43.7	1	3	270	0.00	29.912 
13:30	74.9	74.9	74.9	31	42.2	1	5	248	0.00	29.906 
13:35	75.6	75.6	77.3	32	43.6	1	5	248	0.00	29.906 
13:40	76.3	76.3	77.4	30	42.6	1	4	248	0.00	29.906 
13:45	77.2	77.2	77.9	33	45.8	1	3	202	0.00	29.894 
13:50	77.7	77.7	77.9	29	42.9	1	6	112	0.00	29.894 
13:55	77.4	77.4	77.8	29	42.6	1	5	270	0.00	29.894 
14:00	76.8	76.8	77.7	31	43.9	1	2	315	0.00	29.890 
14:05	76.3	76.3	77.5	32	44.3	1	3	112	0.00	29.890 
14:10	76.0	76.0	77.3	31	43.2	1	4	248	0.00	29.890 
14:15	76.3	76.3	77.5	31	43.4	1	2	248	0.00	29.885 
14:20	76.7	76.7	77.4	28	41.1	1	5	248	0.00	29.885 
14:25	76.7	76.7	77.5	30	42.9	1	5	248	0.00	29.885 
14:30	76.8	76.8	77.5	28	41.2	1	4	248	0.00	29.880 
14:35	76.7	76.7	77.5	29	42.0	2	5	248	0.00	29.880 
14:40	76.5	76.5	77.5	31	43.6	1	3	225	0.00	29.880 
14:45	76.0	76.0	77.3	30	42.3	2	5	292	0.00	29.877 
14:50	76.0	76.0	77.2	29	41.4	2	5	248	0.00	29.877 
14:55	76.1	76.1	77.4	31	43.3	1	4	248	0.00	29.877 
15:00	76.3	76.3	77.5	31	43.4	1	4	270	0.00	29.874 
15:05	76.1	76.1	77.4	32	44.1	1	5	248	0.00	29.874 
15:10	76.0	76.0	77.3	30	42.3	2	4	248	0.00	29.874 
15:15	76.1	76.1	77.2	29	41.5	1	4	248	0.00	29.869 
15:20	76.1	76.1	77.3	30	42.4	2	6	248	0.00	29.869 
15:25	76.1	76.1	77.4	32	44.1	1	5	248	0.00	29.869 
15:30	76.1	76.1	77.4	31	43.3	1	5	248	0.00	29.863 
15:35	76.0	76.0	77.3	30	42.3	2	6	248	0.00	29.863 
15:40	75.8	75.8	77.3	31	43.0	2	4	248	0.00	29.863 
15:45	75.8	75.8	77.3	31	43.0	2	5	248	0.00	29.860 
15:50	75.8	75.8	77.3	31	43.0	1	5	248	0.00	29.860 
15:55	76.0	76.0	77.3	31	43.2	2	7	270	0.00	29.860 
16:00	76.1	76.1	77.4	31	43.3	2	6	248	0.00	29.848 
16:05	76.3	76.3	77.6	33	45.1	1	3	248	0.00	29.848 
16:10	76.5	76.5	77.6	32	44.4	2	5	248	0.00	29.848 
16:15	76.7	76.7	77.7	32	44.6	2	5	248	0.00	29.840 
16:20	76.8	76.8	77.7	32	44.7	2	4	248	0.00	29.840 
16:25	76.8	76.8	77.7	32	44.7	2	4	248	0.00	29.840 
16:30	77.0	77.0	77.8	32	44.9	2	5	248	0.00	29.831 
16:35	77.0	77.0	77.9	33	45.7	1	4	270	0.00	29.831 
16:40	77.2	77.2	77.9	33	45.8	1	4	270	0.00	29.831 
16:45	77.0	77.0	77.9	33	45.7	1	4	248	0.00	29.828 
16:50	76.7	76.7	77.8	34	46.2	1	3	270	0.00	29.828 
16:55	76.5	76.5	77.8	35	46.8	1	4	248	0.00	29.828 
17:00	76.3	76.3	77.7	36	47.4	1	2	248	0.00	29.822 
17:05	76.0	76.0	77.6	35	46.4	2	5	248	0.00	29.822 
17:10	75.8	75.8	77.5	35	46.2	2	6	248	0.00	29.822 
17:15	75.8	75.8	77.6	36	46.9	1	5	248	0.00	29.821 
17:20	75.6	75.6	77.6	38	48.2	1	3	248	0.00	29.821 
17:25	75.3	75.3	77.5	37	47.2	1	3	248	0.00	29.821 
17:30	75.1	75.1	77.3	36	46.3	2	5	248	0.00	29.819 
17:35	75.1	75.1	77.4	37	47.0	2	6	248	0.00	29.819 
17:40	75.1	75.1	77.4	38	47.7	1	3	248	0.00	29.819 
17:45	75.1	75.1	77.4	38	47.7	1	4	248	0.00	29.817 
17:50	74.9	74.9	74.9	38	47.6	1	3	248	0.00	29.817 
17:55	74.6	74.6	74.6	38	47.3	1	5	248	0.00	29.817 
18:00	74.6	74.6	74.6	39	48.0	1	4	248	0.00	29.815 
18:05	74.4	74.4	74.4	38	47.1	2	5	248	0.00	29.815 
18:10	74.2	74.2	74.2	39	47.6	1	5	248	0.00	29.815 
18:15	74.0	74.0	74.0	40	48.1	2	9	270	0.00	29.817 
18:20	74.0	74.0	74.0	39	47.5	1	4	248	0.00	29.817 
18:25	73.9	73.9	73.9	39	47.4	2	6	248	0.00	29.817 
18:30	73.7	73.7	73.7	40	47.9	2	7	248	0.00	29.810 
18:35	73.7	73.7	73.7	40	47.9	2	7	248	0.00	29.810 
18:40	73.5	73.5	73.5	41	48.3	2	5	248	0.00	29.810 
18:45	73.2	73.2	73.2	41	48.1	2	7	248	0.00	29.812 
18:50	73.0	73.0	73.0	41	47.9	3	11	248	0.00	29.812 
18:55	72.8	72.8	72.8	41	47.7	1	4	248	0.00	29.812 
19:00	72.5	72.5	72.5	42	48.1	1	5	248	0.00	29.811 
19:05	72.3	72.3	72.3	41	47.3	2	5	248	0.00	29.811 
19:10	72.1	72.1	72.1	39	45.8	3	11	248	0.00	29.811 
19:15	72.1	72.1	72.1	40	46.4	2	6	248	0.00	29.808 
19:20	72.0	72.0	72.0	40	46.3	3	7	248	0.00	29.808 
19:25	71.8	71.8	71.8	40	46.2	2	5	248	0.00	29.808 
19:30	71.6	71.6	71.6	41	46.6	1	4	248	0.00	29.806 
19:35	71.5	71.5	71.5	41	46.5	2	5	248	0.00	29.806 
19:40	71.3	71.3	71.3	42	47.0	2	5	248	0.00	29.806 
19:45	71.1	71.1	71.1	42	46.8	2	4	248	0.00	29.809 
19:50	70.9	70.9	70.9	43	47.3	1	4	248	0.00	29.809 
19:55	70.8	70.8	70.8	43	47.2	2	6	248	0.00	29.809 
20:00	70.6	70.6	70.6	44	47.6	2	4	248	0.00	29.817 
20:05	70.4	70.4	70.4	45	48.0	2	5	270	0.00	29.817 
20:10	70.3	70.3	70.3	45	47.9	2	6	270	0.00	29.817 
20:15	70.1	70.1	70.1	46	48.3	1	4	248	0.00	29.807 
20:20	69.9	69.9	69.9	46	48.2	1	4	248	0.00	29.807 
20:25	69.8	69.8	69.8	47	48.6	1	4	248	0.00	29.807 
20:30	69.6	69.6	69.6	47	48.5	2	4	248	0.00	29.807 
20:35	69.4	69.4	69.4	48	48.8	1	3	248	0.00	29.807 
20:40	69.4	69.4	69.4	49	49.4	1	4	248	0.00	29.807 
20:45	69.3	69.3	69.3	49	49.3	1	4	248	0.00	29.806 
20:50	69.1	69.1	69.1	50	49.7	1	5	248	0.00	29.806 
20:55	69.1	69.1	69.1	50	49.7	1	3	248	0.00	29.806 
21:00	68.9	68.9	68.9	50	49.5	1	6	248	0.00	29.807 
21:05	68.9	68.9	68.9	50	49.5	1	3	248	0.00	29.807 
21:10	68.8	68.8	68.8	51	49.9	1	3	248	0.00	29.807 
21:15	68.6	68.6	68.6	51	49.7	1	3	248	0.00	29.803 
21:20	68.4	68.4	68.4	51	49.6	1	3	248	0.00	29.803 
21:25	68.3	68.3	68.3	51	49.5	1	2	248	0.00	29.803 
21:30	68.1	68.1	68.1	51	49.3	1	3	248	0.00	29.803 
21:35	68.1	68.1	68.1	51	49.3	1	4	248	0.00	29.803 
21:40	68.1	68.1	68.1	51	49.3	0	2	248	0.00	29.803 
21:45	67.9	67.9	67.9	52	49.6	1	2	248	0.00	29.803 
21:50	67.8	67.8	67.8	52	49.5	0	1	248	0.00	29.803 
21:55	67.6	67.6	67.6	52	49.3	0	4	248	0.00	29.803 
22:00	67.4	67.4	67.4	53	49.7	0	2	248	0.00	29.804 
22:05	67.3	67.3	67.3	53	49.6	1	3	248	0.00	29.804 
22:10	67.3	67.3	67.3	53	49.6	1	3	248	0.00	29.804 
22:15	67.1	67.1	67.1	53	49.4	1	5	248	0.00	29.801 
22:20	67.1	67.1	67.1	54	49.9	1	4	248	0.00	29.801 
22:25	66.9	66.9	66.9	54	49.7	0	2	248	0.00	29.801 
22:30	66.8	66.8	66.8	54	49.6	0	1	248	0.00	29.798 
22:35	66.4	66.4	66.4	55	49.7	0	1	248	0.00	29.798 
22:40	66.3	66.3	66.3	56	50.1	0	1	248	0.00	29.798 
22:45	66.1	66.1	66.1	56	49.9	0	2	248	0.00	29.797 
22:50	66.0	66.0	66.0	56	49.8	2	4	248	0.00	29.797 
22:55	66.0	66.0	66.0	56	49.8	1	4	248	0.00	29.797 
23:00	65.8	65.8	65.8	57	50.1	1	3	248	0.00	29.790 
23:05	65.8	65.8	65.8	57	50.1	2	5	248	0.00	29.790 
23:10	65.6	65.6	65.6	58	50.4	2	5	270	0.00	29.790 
23:15	65.5	65.5	65.5	58	50.3	1	4	248	0.00	29.786 
23:20	65.3	65.3	65.3	59	50.6	2	5	248	0.00	29.786 
23:25	65.0	65.0	65.0	59	50.3	2	7	248	0.00	29.786 
23:30	64.7	64.7	64.7	60	50.5	1	4	270	0.00	29.784 
23:35	64.5	64.5	64.5	60	50.3	1	3	270	0.00	29.784 
23:40	64.2	64.2	64.2	61	50.5	1	3	270	0.00	29.784 
23:45	63.9	63.9	63.9	62	50.6	1	3	270	0.00	29.780 
23:50	63.7	63.7	63.7	62	50.4	2	4	270	0.00	29.780 
23:55	63.7	63.7	63.7	63	50.9	1	3	270	0.00	29.780 

CoCoRaHS
IN-AL-39
A2 Web Hosting
Creative Commons License
GoDaddy
search engine by freefind advanced

loaded 2018-11-13 17:18:16 • last modified 2010-11-18 10:43:29
Privacy PolicyDisclaimer
• wx.awcolley.com is powered by PmWiki v.2002016 •
• all content (unless otherwise noted) © 2018 A W Colley